createdAt,value
2023-01-30T00:01:31.567Z,21.55
2023-01-30T00:03:59.084Z,23.05
2023-01-30T00:06:26.741Z,22.75
2023-01-30T00:08:54.466Z,22.63
2023-01-30T00:11:22.423Z,20.00
2023-01-30T00:13:51.266Z,20.65
2023-01-30T00:16:18.825Z,20.83
2023-01-30T00:18:46.653Z,23.83
2023-01-30T00:21:15.409Z,22.20
2023-01-30T00:23:43.553Z,22.80
2023-01-30T00:26:12.008Z,19.67
2023-01-30T00:28:40.359Z,28.50
2023-01-30T00:31:08.597Z,21.90
2023-01-30T00:33:38.248Z,20.23
2023-01-30T00:36:06.031Z,20.92
2023-01-30T00:38:33.544Z,20.48
2023-01-30T00:41:00.897Z,21.52
2023-01-30T00:43:46.806Z,22.45
2023-01-30T00:46:51.892Z,18.23
2023-01-30T00:49:20.169Z,23.08
2023-01-30T00:51:47.700Z,23.85
2023-01-30T00:54:15.109Z,20.50
2023-01-30T00:56:42.497Z,25.63
2023-01-30T00:59:09.759Z,20.00
2023-01-30T01:01:37.970Z,20.73
2023-01-30T01:04:06.870Z,24.65
2023-01-30T01:06:34.317Z,21.80
2023-01-30T01:09:02.280Z,20.92
2023-01-30T01:11:30.719Z,23.65
2023-01-30T01:14:00.697Z,22.45
2023-01-30T01:16:30.932Z,21.67
2023-01-30T01:18:59.313Z,19.02
2023-01-30T01:21:26.651Z,21.83
2023-01-30T01:23:57.207Z,24.13
2023-01-30T01:26:24.795Z,17.02
2023-01-30T01:28:56.602Z,26.50
2023-01-30T01:33:52.227Z,21.48
2023-01-30T01:36:42.473Z,21.95
2023-01-30T01:39:07.144Z,19.63
2023-01-30T01:41:34.526Z,19.52
2023-01-30T01:44:12.711Z,16.67
2023-01-30T01:46:58.518Z,22.50
2023-01-30T01:49:32.447Z,22.85
2023-01-30T01:52:14.357Z,19.52
2023-01-30T01:54:59.659Z,18.92
2023-01-30T01:57:34.298Z,21.77
2023-01-30T02:00:12.142Z,21.02
2023-01-30T02:02:47.771Z,20.27
2023-01-30T02:05:17.392Z,22.63
2023-01-30T02:07:54.927Z,23.17
2023-01-30T02:10:50.993Z,24.60
2023-01-30T02:13:18.957Z,23.38
2023-01-30T02:15:48.299Z,22.85
2023-01-30T02:18:16.155Z,23.17
2023-01-30T02:20:49.534Z,21.73
2023-01-30T02:23:32.143Z,24.42
2023-01-30T02:26:36.549Z,18.55
2023-01-30T02:29:34.601Z,19.00
2023-01-30T02:32:33.229Z,20.83
2023-01-30T02:35:17.957Z,17.08
2023-01-30T02:38:16.461Z,19.67
2023-01-30T02:40:58.925Z,19.88
2023-01-30T02:43:34.264Z,22.45
2023-01-30T02:46:13.647Z,18.88
2023-01-30T02:49:14.067Z,19.88
2023-01-30T02:51:43.810Z,20.38
2023-01-30T02:54:12.801Z,18.15
2023-01-30T02:56:57.014Z,20.55
2023-01-30T02:59:33.384Z,23.90
2023-01-30T03:02:05.381Z,21.42
2023-01-30T03:05:08.609Z,17.90
2023-01-30T03:07:54.185Z,20.90
2023-01-30T03:10:46.886Z,22.20
2023-01-30T03:13:37.199Z,19.65
2023-01-30T03:16:18.090Z,19.08
2023-01-30T03:18:46.438Z,24.00
2023-01-30T03:21:17.117Z,22.33
2023-01-30T03:23:47.957Z,19.08
2023-01-30T03:26:22.365Z,21.23
2023-01-30T03:28:51.520Z,18.00
2023-01-30T03:31:19.428Z,19.52
2023-01-30T03:33:47.064Z,17.42
2023-01-30T03:36:14.701Z,17.58
2023-01-30T03:38:42.423Z,18.48
2023-01-30T03:41:10.034Z,21.08
2023-01-30T03:43:38.760Z,20.75
2023-01-30T03:46:06.764Z,18.35
2023-01-30T03:48:34.304Z,19.58
2023-01-30T03:51:01.646Z,19.55
2023-01-30T03:53:29.869Z,18.40
2023-01-30T03:55:57.298Z,20.45
2023-01-30T03:58:29.616Z,19.42
2023-01-30T04:00:58.541Z,21.17
2023-01-30T04:03:26.616Z,22.58
2023-01-30T04:05:58.028Z,21.17
2023-01-30T04:08:26.253Z,25.15
2023-01-30T04:10:53.704Z,19.80
2023-01-30T04:13:21.511Z,23.25
2023-01-30T04:15:48.921Z,19.98
2023-01-30T04:18:22.114Z,23.27
2023-01-30T04:20:58.346Z,21.15
2023-01-30T04:23:32.779Z,20.15
2023-01-30T04:26:00.205Z,18.98
2023-01-30T04:28:28.136Z,16.90
2023-01-30T04:30:55.644Z,18.77
2023-01-30T04:33:49.111Z,21.38
2023-01-30T04:36:16.688Z,21.38
2023-01-30T04:38:45.455Z,19.25
2023-01-30T04:41:13.448Z,25.98
2023-01-30T04:43:43.009Z,22.88
2023-01-30T04:46:28.872Z,16.23
2023-01-30T04:48:57.327Z,18.42
2023-01-30T04:51:26.634Z,19.80
2023-01-30T04:53:54.283Z,19.27
2023-01-30T04:56:21.675Z,19.73
2023-01-30T04:58:50.419Z,18.13
2023-01-30T05:01:33.334Z,18.38
2023-01-30T05:06:29.207Z,18.67
2023-01-30T05:08:57.475Z,17.45
2023-01-30T05:11:26.178Z,18.35
2023-01-30T05:13:54.181Z,21.92
2023-01-30T05:16:22.847Z,18.70
2023-01-30T05:18:50.907Z,17.20
2023-01-30T05:21:19.617Z,17.45
2023-01-30T05:23:47.347Z,20.73
2023-01-30T05:26:15.683Z,19.33
2023-01-30T05:28:43.521Z,16.55
2023-01-30T05:31:13.100Z,17.95
2023-01-30T05:33:41.491Z,17.58
2023-01-30T05:36:15.755Z,24.05
2023-01-30T05:38:44.148Z,20.77
2023-01-30T05:41:13.091Z,19.10
2023-01-30T05:43:40.703Z,15.70
2023-01-30T05:46:10.890Z,15.85
2023-01-30T05:48:38.473Z,19.75
2023-01-30T05:51:06.144Z,24.23
2023-01-30T05:53:35.152Z,22.45
2023-01-30T05:56:04.804Z,23.60
2023-01-30T05:58:33.191Z,16.65
2023-01-30T06:01:06.540Z,18.55
2023-01-30T06:03:33.962Z,22.02
2023-01-30T06:06:06.000Z,16.38
2023-01-30T06:08:33.694Z,17.60
2023-01-30T06:11:02.714Z,22.13
2023-01-30T06:13:30.172Z,16.95
2023-01-30T06:15:57.907Z,23.02
2023-01-30T06:18:25.461Z,20.75
2023-01-30T06:20:54.005Z,17.35
2023-01-30T06:23:23.544Z,25.02
2023-01-30T06:25:52.217Z,18.80
2023-01-30T06:28:20.223Z,21.55
2023-01-30T06:30:47.915Z,18.30
2023-01-30T06:33:15.345Z,20.50
2023-01-30T06:35:44.020Z,25.27
2023-01-30T06:38:13.372Z,26.92
2023-01-30T06:40:41.918Z,38.10
2023-01-30T06:43:09.322Z,25.48
2023-01-30T06:45:36.716Z,25.45
2023-01-30T06:48:04.395Z,22.98
2023-01-30T06:50:32.376Z,19.42
2023-01-30T06:53:03.515Z,23.15
2023-01-30T06:55:37.001Z,23.52
2023-01-30T06:58:13.319Z,18.98
2023-01-30T07:00:42.395Z,29.05
2023-01-30T07:03:15.017Z,26.05
2023-01-30T07:05:43.911Z,18.60
2023-01-30T07:08:11.820Z,21.85
2023-01-30T07:10:40.205Z,27.25
2023-01-30T07:13:07.567Z,24.05
2023-01-30T07:15:35.061Z,26.65
2023-01-30T07:18:02.682Z,27.88
2023-01-30T07:20:31.314Z,20.85
2023-01-30T07:22:58.725Z,20.52
2023-01-30T07:25:27.714Z,20.35
2023-01-30T07:28:02.379Z,16.88
2023-01-30T07:30:32.238Z,24.42
2023-01-30T07:33:00.643Z,19.33
2023-01-30T07:35:30.633Z,19.73
2023-01-30T07:37:58.395Z,13.30
2023-01-30T07:40:26.673Z,15.15
2023-01-30T07:43:06.055Z,20.95
2023-01-30T07:45:45.282Z,15.32
2023-01-30T07:48:15.139Z,17.30
2023-01-30T07:50:43.271Z,18.90
2023-01-30T07:53:13.275Z,19.30
2023-01-30T07:55:40.818Z,15.15
2023-01-30T07:58:08.516Z,17.27
2023-01-30T08:00:36.981Z,15.55
2023-01-30T08:03:04.336Z,16.73
2023-01-30T08:05:32.182Z,18.67
2023-01-30T08:08:00.937Z,15.38
2023-01-30T08:10:28.393Z,18.77
2023-01-30T08:12:55.736Z,19.90
2023-01-30T08:15:23.258Z,14.85
2023-01-30T08:17:55.384Z,15.98
2023-01-30T08:20:22.907Z,17.50
2023-01-30T08:22:50.339Z,14.77
2023-01-30T08:25:17.850Z,18.33
2023-01-30T08:27:45.195Z,20.30
2023-01-30T08:30:13.321Z,18.20
2023-01-30T08:32:40.680Z,18.10
2023-01-30T08:35:09.063Z,20.77
2023-01-30T08:37:36.832Z,19.85
2023-01-30T08:40:04.502Z,19.90
2023-01-30T08:42:31.863Z,21.02
2023-01-30T08:44:59.227Z,16.90
2023-01-30T08:47:26.666Z,23.80
2023-01-30T08:49:54.105Z,28.38
2023-01-30T08:52:21.455Z,21.50
2023-01-30T08:54:48.770Z,20.50
2023-01-30T08:57:16.262Z,21.90
2023-01-30T08:59:43.538Z,22.83
2023-01-30T09:02:12.314Z,20.00
2023-01-30T09:04:39.687Z,22.20
2023-01-30T09:07:07.004Z,28.70
2023-01-30T09:09:34.410Z,33.15
2023-01-30T09:12:01.796Z,31.02
2023-01-30T09:14:29.171Z,26.10
2023-01-30T09:16:56.692Z,31.75
2023-01-30T09:19:25.869Z,29.67
2023-01-30T09:21:54.501Z,30.15
2023-01-30T09:24:26.848Z,31.33
2023-01-30T09:26:57.598Z,29.40
2023-01-30T09:29:29.019Z,44.78
2023-01-30T09:31:57.014Z,35.80
2023-01-30T09:34:27.735Z,33.80
2023-01-30T09:36:56.730Z,29.38
2023-01-30T09:39:24.108Z,30.23
2023-01-30T09:42:05.350Z,26.90
2023-01-30T09:44:43.726Z,32.25
2023-01-30T09:47:14.715Z,28.75
2023-01-30T09:50:32.192Z,30.90
2023-01-30T09:53:14.777Z,28.27
2023-01-30T09:55:42.981Z,29.92
2023-01-30T09:58:24.542Z,29.20
2023-01-30T10:01:03.787Z,27.33
2023-01-30T10:03:38.469Z,31.00
2023-01-30T10:06:11.057Z,21.80
2023-01-30T10:08:56.536Z,26.63
2023-01-30T10:11:55.601Z,31.95
2023-01-30T10:14:46.491Z,26.00
2023-01-30T10:17:41.975Z,24.80
2023-01-30T10:20:29.744Z,25.05
2023-01-30T10:23:12.149Z,28.33
2023-01-30T10:25:49.469Z,27.67
2023-01-30T10:28:21.266Z,25.75
2023-01-30T10:33:33.778Z,21.55
2023-01-30T10:36:12.698Z,21.42
2023-01-30T10:38:52.112Z,26.33
2023-01-30T10:41:34.860Z,22.65
2023-01-30T10:44:15.135Z,24.05
2023-01-30T10:46:46.739Z,23.63
2023-01-30T10:49:25.167Z,22.30
2023-01-30T10:52:25.027Z,22.85
2023-01-30T10:55:19.934Z,27.45
2023-01-30T10:57:58.424Z,26.38
2023-01-30T11:00:38.697Z,23.02
2023-01-30T11:03:35.273Z,29.42
2023-01-30T11:06:16.959Z,21.52
2023-01-30T11:08:44.459Z,23.77
2023-01-30T11:11:33.001Z,28.33
2023-01-30T11:14:09.008Z,24.48
2023-01-30T11:16:54.337Z,24.58
2023-01-30T11:19:32.188Z,27.88
2023-01-30T11:22:04.891Z,25.75
2023-01-30T11:24:42.989Z,20.55
2023-01-30T11:27:28.863Z,26.98
2023-01-30T11:30:19.492Z,29.45
2023-01-30T11:32:49.619Z,20.65
2023-01-30T11:35:30.767Z,24.50
2023-01-30T11:38:22.643Z,23.60
2023-01-30T11:40:50.392Z,24.90
2023-01-30T11:43:17.716Z,23.00
2023-01-30T11:45:49.538Z,27.25
2023-01-30T11:51:04.531Z,23.13
2023-01-30T11:53:40.218Z,27.15
2023-01-30T11:56:30.475Z,21.63
2023-01-30T11:59:07.458Z,24.65
2023-01-30T12:01:36.997Z,23.08
2023-01-30T12:04:10.821Z,22.38
2023-01-30T12:06:41.008Z,22.48
2023-01-30T12:09:31.479Z,24.65
2023-01-30T12:11:58.807Z,22.17
2023-01-30T12:14:45.765Z,24.30
2023-01-30T12:17:26.354Z,25.27
2023-01-30T12:20:03.954Z,25.30
2023-01-30T12:22:46.432Z,27.00
2023-01-30T12:25:25.620Z,22.38
2023-01-30T12:28:04.725Z,22.05
2023-01-30T12:30:46.145Z,19.23
2023-01-30T12:35:52.222Z,21.63
2023-01-30T12:38:25.107Z,23.23
2023-01-30T12:41:01.382Z,22.92
2023-01-30T12:43:35.495Z,26.55
2023-01-30T12:46:07.272Z,24.13
2023-01-30T12:52:09.378Z,26.50
2023-01-30T12:55:04.834Z,24.50
2023-01-30T12:57:58.084Z,20.65
2023-01-30T13:00:33.802Z,20.85
2023-01-30T13:03:30.530Z,23.05
2023-01-30T13:06:19.667Z,18.17
2023-01-30T13:09:14.464Z,21.90
2023-01-30T13:11:53.151Z,24.63
2023-01-30T13:14:53.312Z,23.95
2023-01-30T13:18:00.016Z,18.00
2023-01-30T13:20:58.563Z,21.80
2023-01-30T13:23:58.501Z,24.65
2023-01-30T13:26:34.866Z,21.92
2023-01-30T13:29:09.721Z,20.25
2023-01-30T13:31:42.435Z,18.15
2023-01-30T13:34:18.052Z,21.30
2023-01-30T13:36:51.436Z,20.48
2023-01-30T13:39:28.569Z,18.52
2023-01-30T13:42:00.268Z,16.30
2023-01-30T13:44:31.546Z,16.52
2023-01-30T13:47:10.806Z,23.13
2023-01-30T13:49:52.648Z,23.92
2023-01-30T13:52:46.068Z,16.40
2023-01-30T13:55:13.460Z,19.65
2023-01-30T13:58:09.554Z,18.95
2023-01-30T14:00:37.243Z,16.50
2023-01-30T14:03:07.541Z,20.73
2023-01-30T14:06:00.678Z,28.10
2023-01-30T14:08:48.572Z,38.92
2023-01-30T14:11:44.778Z,19.08
2023-01-30T14:14:29.397Z,25.30
2023-01-30T14:17:27.884Z,22.80
2023-01-30T14:20:15.173Z,20.33
2023-01-30T14:23:27.530Z,22.52
2023-01-30T14:28:28.584Z,24.05
2023-01-30T14:30:59.129Z,25.67
2023-01-30T14:33:26.577Z,32.05
2023-01-30T14:36:02.960Z,35.15
2023-01-30T14:38:35.104Z,31.25
2023-01-30T14:41:02.407Z,26.23
2023-01-30T14:43:38.827Z,28.73
2023-01-30T14:46:18.198Z,31.33
2023-01-30T14:48:54.445Z,22.02
2023-01-30T14:51:44.304Z,27.25
2023-01-30T14:54:14.781Z,24.98
2023-01-30T14:56:51.217Z,35.20
2023-01-30T14:59:21.615Z,29.20
2023-01-30T15:02:13.622Z,27.65
2023-01-30T15:07:26.183Z,21.42
2023-01-30T15:10:17.702Z,22.08
2023-01-30T15:12:57.016Z,24.45
2023-01-30T15:15:45.067Z,19.83
2023-01-30T15:18:38.643Z,23.02
2023-01-30T15:21:44.912Z,25.25
2023-01-30T15:24:53.344Z,22.95
2023-01-30T15:27:49.468Z,22.27
2023-01-30T15:30:35.664Z,20.40
2023-01-30T15:33:22.941Z,20.17
2023-01-30T15:35:57.006Z,24.02
2023-01-30T15:38:33.662Z,21.08
2023-01-30T15:41:06.559Z,20.45
2023-01-30T15:43:52.385Z,22.23
2023-01-30T15:46:48.252Z,17.20
2023-01-30T15:49:40.107Z,22.55
2023-01-30T15:52:14.659Z,21.70
2023-01-30T15:54:49.985Z,17.13
2023-01-30T15:57:32.531Z,19.00
2023-01-30T16:00:00.552Z,23.55
2023-01-30T16:02:36.322Z,20.80
2023-01-30T16:05:25.608Z,19.27
2023-01-30T16:07:55.484Z,20.90
2023-01-30T16:10:29.111Z,19.33
2023-01-30T16:13:02.371Z,23.73
2023-01-30T16:15:40.084Z,20.58
2023-01-30T16:18:19.316Z,18.73
2023-01-30T16:21:00.476Z,21.00
2023-01-30T16:23:35.807Z,20.05
2023-01-30T16:26:04.825Z,15.68
2023-01-30T16:28:33.034Z,20.80
2023-01-30T16:31:02.785Z,19.15
2023-01-30T16:33:36.632Z,16.83
2023-01-30T16:36:06.802Z,16.08
2023-01-30T16:38:45.533Z,17.95
2023-01-30T16:41:43.261Z,21.60
2023-01-30T16:44:18.240Z,22.30
2023-01-30T16:46:51.890Z,25.98
2023-01-30T16:49:42.779Z,21.67
2023-01-30T16:52:27.991Z,22.52
2023-01-30T16:55:02.534Z,25.15
2023-01-30T16:57:50.342Z,25.60
2023-01-30T17:00:23.101Z,25.25
2023-01-30T17:02:54.616Z,25.90
2023-01-30T17:05:24.835Z,19.55
2023-01-30T17:07:54.093Z,18.20
2023-01-30T17:10:40.210Z,22.42
2023-01-30T17:13:43.374Z,22.15
2023-01-30T17:16:26.049Z,19.45
2023-01-30T17:18:56.109Z,21.05
2023-01-30T17:21:25.643Z,17.02
2023-01-30T17:23:57.869Z,20.30
2023-01-30T17:26:25.471Z,20.55
2023-01-30T17:28:52.941Z,22.98
2023-01-30T17:31:21.144Z,26.95
2023-01-30T17:33:48.631Z,23.10
2023-01-30T17:36:26.253Z,24.05
2023-01-30T17:38:54.292Z,28.13
2023-01-30T17:41:25.560Z,27.50
2023-01-30T17:43:52.899Z,19.77
2023-01-30T17:46:26.648Z,23.25
2023-01-30T17:48:53.996Z,28.33
2023-01-30T17:51:21.322Z,21.48
2023-01-30T17:53:48.629Z,29.30
2023-01-30T17:56:30.108Z,26.83
2023-01-30T17:58:57.473Z,30.10
2023-01-30T18:01:24.972Z,26.27
2023-01-30T18:03:52.425Z,25.00
2023-01-30T18:06:19.764Z,31.27
2023-01-30T18:08:47.198Z,35.13
2023-01-30T18:11:15.898Z,39.30
2023-01-30T18:13:43.267Z,40.22
2023-01-30T18:16:17.545Z,46.78
2023-01-30T18:18:44.948Z,48.30
2023-01-30T18:21:12.475Z,50.72
2023-01-30T18:23:39.809Z,43.65
2023-01-30T18:26:07.164Z,54.13
2023-01-30T18:28:34.553Z,64.20
2023-01-30T18:31:01.979Z,99.57
2023-01-30T18:33:29.458Z,187.02
2023-01-30T18:35:56.705Z,246.95
2023-01-30T18:38:24.028Z,273.42
2023-01-30T18:40:51.367Z,263.15
2023-01-30T18:43:18.703Z,307.87
2023-01-30T18:45:46.110Z,204.55
2023-01-30T18:48:13.415Z,140.07
2023-01-30T18:50:40.840Z,134.68
2023-01-30T18:53:08.513Z,144.10
2023-01-30T18:55:36.292Z,159.20
2023-01-30T18:58:03.684Z,170.02
2023-01-30T19:00:31.084Z,158.45
2023-01-30T19:02:58.741Z,155.85
2023-01-30T19:05:26.157Z,138.90
2023-01-30T19:07:54.415Z,127.15
2023-01-30T19:10:22.157Z,125.47
2023-01-30T19:13:08.083Z,127.55
2023-01-30T19:15:36.050Z,137.18
2023-01-30T19:18:03.420Z,120.80
2023-01-30T19:20:31.154Z,115.65
2023-01-30T19:22:59.839Z,121.88
2023-01-30T19:25:27.371Z,130.50
2023-01-30T19:27:56.623Z,119.82
2023-01-30T19:30:24.118Z,118.97
2023-01-30T19:32:53.464Z,110.13
2023-01-30T19:35:21.028Z,96.18
2023-01-30T19:37:48.511Z,102.93
2023-01-30T19:40:16.087Z,94.57
2023-01-30T19:42:44.691Z,110.40
2023-01-30T19:45:12.484Z,89.28
2023-01-30T19:47:39.896Z,91.70
2023-01-30T19:50:08.036Z,91.22
2023-01-30T19:52:36.504Z,91.13
2023-01-30T19:55:05.490Z,90.05
2023-01-30T19:57:32.787Z,96.20
2023-01-30T20:00:00.032Z,88.40
2023-01-30T20:02:29.366Z,85.07
2023-01-30T20:04:58.245Z,93.40
2023-01-30T20:07:25.716Z,82.00
2023-01-30T20:09:53.083Z,83.30
2023-01-30T20:12:21.923Z,80.50
2023-01-30T20:14:49.270Z,76.55
2023-01-30T20:17:16.603Z,70.93
2023-01-30T20:19:43.900Z,90.50
2023-01-30T20:22:11.320Z,77.75
2023-01-30T20:24:38.740Z,85.97
2023-01-30T20:27:06.097Z,91.68
2023-01-30T20:29:33.474Z,94.72
2023-01-30T20:32:00.900Z,83.85
2023-01-30T20:34:28.412Z,86.90
2023-01-30T20:36:55.696Z,74.35
2023-01-30T20:39:23.393Z,78.25
2023-01-30T20:41:50.811Z,76.03
2023-01-30T20:44:18.253Z,71.07
2023-01-30T20:46:46.948Z,64.00
2023-01-30T20:49:18.566Z,69.55
2023-01-30T20:51:47.452Z,82.55
2023-01-30T20:54:15.332Z,73.97
2023-01-30T20:56:48.313Z,69.30
2023-01-30T20:59:18.658Z,64.53
2023-01-30T21:01:46.773Z,62.22
2023-01-30T21:04:16.256Z,65.82
2023-01-30T21:06:46.436Z,58.25
2023-01-30T21:09:19.963Z,65.95
2023-01-30T21:11:48.350Z,61.85
2023-01-30T21:14:17.007Z,74.07
2023-01-30T21:16:44.855Z,58.83
2023-01-30T21:19:16.602Z,60.63
2023-01-30T21:24:22.091Z,62.60
2023-01-30T21:26:50.233Z,61.60
2023-01-30T21:29:19.443Z,64.85
2023-01-30T21:31:47.025Z,62.63
2023-01-30T21:34:15.115Z,59.33
2023-01-30T21:36:42.604Z,62.65
2023-01-30T21:39:31.919Z,64.25
2023-01-30T21:42:17.862Z,62.78
2023-01-30T21:44:45.223Z,63.60
2023-01-30T21:47:12.626Z,53.47
2023-01-30T21:49:41.634Z,62.90
2023-01-30T21:52:08.957Z,57.47
2023-01-30T21:54:36.557Z,57.25
2023-01-30T21:57:03.996Z,59.20
2023-01-30T21:59:31.974Z,66.35
2023-01-30T22:01:59.394Z,59.03
2023-01-30T22:04:26.703Z,66.28
2023-01-30T22:06:54.430Z,62.05
2023-01-30T22:09:21.889Z,61.47
2023-01-30T22:11:49.371Z,63.65
2023-01-30T22:14:16.754Z,57.85
2023-01-30T22:16:44.191Z,62.83
2023-01-30T22:19:11.895Z,59.53
2023-01-30T22:21:40.559Z,59.88
2023-01-30T22:24:11.248Z,56.88
2023-01-30T22:26:39.577Z,55.15
2023-01-30T22:29:07.336Z,55.08
2023-01-30T22:31:38.403Z,46.78
2023-01-30T22:34:06.423Z,55.47
2023-01-30T22:36:35.100Z,52.80
2023-01-30T22:39:03.950Z,57.60
2023-01-30T22:41:34.822Z,54.08
2023-01-30T22:44:04.092Z,51.67
2023-01-30T22:46:35.200Z,47.53
2023-01-30T22:49:04.546Z,50.67
2023-01-30T22:51:38.421Z,53.30
2023-01-30T22:54:09.463Z,49.33
2023-01-30T22:56:41.613Z,46.23
2023-01-30T22:59:09.574Z,51.95
2023-01-30T23:01:40.013Z,60.95
2023-01-30T23:04:11.857Z,48.70
2023-01-30T23:09:08.087Z,48.45
2023-01-30T23:11:41.925Z,46.50
2023-01-30T23:14:12.077Z,49.00
2023-01-30T23:16:41.648Z,44.28
2023-01-30T23:19:11.091Z,46.55
2023-01-30T23:21:41.427Z,46.22
2023-01-30T23:24:14.848Z,48.55
2023-01-30T23:26:45.750Z,50.35
2023-01-30T23:29:16.230Z,42.37
2023-01-30T23:31:44.821Z,43.28
2023-01-30T23:34:15.140Z,43.67
2023-01-30T23:36:42.984Z,48.05
2023-01-30T23:39:12.018Z,47.75
2023-01-30T23:41:39.989Z,50.00
2023-01-30T23:44:07.354Z,48.75
2023-01-30T23:46:37.748Z,42.85
2023-01-30T23:49:08.059Z,48.47
2023-01-30T23:51:37.539Z,45.47
2023-01-30T23:54:05.665Z,47.88
2023-01-30T23:56:36.292Z,43.13
2023-01-30T23:59:04.739Z,45.20
